RYR9671 EGNX-EGSS
Flight info
| Callsign | RYR9671 |
|---|---|
| Flight time | 0h 26m |
| Altitude | 15000 |
| Route | SAPCO Y53 DTY M605 FINMA |
| Aircraft | B738/M-SDE2E3FGHIRWXY/LB1 |
Departure
| Time | 2026-05-04 18:38 |
|---|---|
| Airport | East Midlands Airport (EGNX) |
Arrival
| Time | 2026-05-04 19:05 |
|---|---|
| Airport | London Stansted Airport (EGSS) |
| Time | Latitude | Longitude | Altitude | Speed | Heading |
|---|---|---|---|---|---|
| 2026-05-04 18:21 | 52.82815 | -1.33305 | 315 ft | 0 kts | 358° |
| 2026-05-04 18:29 | 52.82809 | -1.33305 | 315 ft | 2 kts | 358° |
| 2026-05-04 18:29 | 52.82792 | -1.33304 | 315 ft | 3 kts | 358° |
| 2026-05-04 18:29 | 52.82773 | -1.33303 | 315 ft | 3 kts | 358° |
| 2026-05-04 18:30 | 52.82735 | -1.33300 | 315 ft | 0 kts | 358° |
| 2026-05-04 18:32 | 52.82746 | -1.33301 | 315 ft | 3 kts | 358° |
| 2026-05-04 18:32 | 52.82766 | -1.33289 | 315 ft | 4 kts | 46° |
| 2026-05-04 18:32 | 52.82771 | -1.33239 | 315 ft | 6 kts | 88° |
| 2026-05-04 18:32 | 52.82784 | -1.33173 | 315 ft | 7 kts | 40° |
| 2026-05-04 18:33 | 52.82831 | -1.33164 | 315 ft | 8 kts | 358° |
| 2026-05-04 18:33 | 52.82893 | -1.33166 | 315 ft | 9 kts | 5° |
| 2026-05-04 18:33 | 52.82922 | -1.33088 | 315 ft | 9 kts | 88° |
| 2026-05-04 18:33 | 52.82925 | -1.32975 | 315 ft | 11 kts | 88° |
| 2026-05-04 18:34 | 52.82927 | -1.32841 | 315 ft | 12 kts | 88° |
| 2026-05-04 18:34 | 52.82930 | -1.32690 | 315 ft | 14 kts | 88° |
| 2026-05-04 18:34 | 52.82933 | -1.32518 | 315 ft | 16 kts | 88° |
| 2026-05-04 18:34 | 52.82936 | -1.32329 | 315 ft | 17 kts | 88° |
| 2026-05-04 18:35 | 52.82940 | -1.32125 | 315 ft | 19 kts | 88° |
| 2026-05-04 18:35 | 52.82944 | -1.31904 | 315 ft | 20 kts | 88° |
| 2026-05-04 18:35 | 52.82948 | -1.31690 | 315 ft | 15 kts | 88° |
| 2026-05-04 18:35 | 52.82951 | -1.31507 | 315 ft | 17 kts | 88° |
| 2026-05-04 18:36 | 52.82955 | -1.31309 | 315 ft | 18 kts | 88° |
| 2026-05-04 18:36 | 52.82959 | -1.31093 | 315 ft | 19 kts | 88° |
| 2026-05-04 18:36 | 52.82963 | -1.30890 | 315 ft | 14 kts | 88° |
| 2026-05-04 18:36 | 52.82984 | -1.30737 | 315 ft | 14 kts | 47° |
| 2026-05-04 18:37 | 52.83076 | -1.30686 | 315 ft | 15 kts | 357° |
| 2026-05-04 18:37 | 52.83135 | -1.30769 | 315 ft | 13 kts | 269° |
| 2026-05-04 18:37 | 52.83129 | -1.31111 | 315 ft | 56 kts | 268° |
| 2026-05-04 18:37 | 52.83111 | -1.32097 | 315 ft | 114 kts | 268° |
| 2026-05-04 18:38 | 52.83082 | -1.33707 | 315 ft | 163 kts | 268° |
| 2026-05-04 18:38 | 52.83045 | -1.35719 | 646 ft | 182 kts | 268° |
| 2026-05-04 18:38 | 52.83006 | -1.37878 | 1182 ft | 194 kts | 268° |
| 2026-05-04 18:38 | 52.82993 | -1.38612 | 1363 ft | 198 kts | 268° |
| 2026-05-04 18:39 | 52.82939 | -1.40941 | 2112 ft | 204 kts | 263° |
| 2026-05-04 18:39 | 52.82348 | -1.43022 | 2885 ft | 205 kts | 231° |
| 2026-05-04 18:39 | 52.81252 | -1.44525 | 3727 ft | 203 kts | 214° |
| 2026-05-04 18:39 | 52.80022 | -1.45623 | 4497 ft | 204 kts | 199° |
| 2026-05-04 18:40 | 52.78591 | -1.45704 | 5232 ft | 211 kts | 172° |
| 2026-05-04 18:40 | 52.77128 | -1.45074 | 5931 ft | 224 kts | 163° |
| 2026-05-04 18:40 | 52.75589 | -1.44233 | 6610 ft | 245 kts | 161° |
| 2026-05-04 18:40 | 52.73902 | -1.43259 | 7314 ft | 266 kts | 161° |
| 2026-05-04 18:41 | 52.72106 | -1.42201 | 8005 ft | 287 kts | 161° |
| 2026-05-04 18:41 | 52.70151 | -1.41040 | 8701 ft | 307 kts | 161° |
| 2026-05-04 18:41 | 52.68108 | -1.39820 | 9382 ft | 313 kts | 161° |
| 2026-05-04 18:41 | 52.66035 | -1.38606 | 10064 ft | 317 kts | 161° |
| 2026-05-04 18:42 | 52.63977 | -1.37414 | 10732 ft | 319 kts | 161° |
| 2026-05-04 18:42 | 52.61872 | -1.36200 | 11411 ft | 319 kts | 161° |
| 2026-05-04 18:42 | 52.59779 | -1.34994 | 12086 ft | 319 kts | 161° |
| 2026-05-04 18:42 | 52.57675 | -1.33781 | 12766 ft | 318 kts | 161° |
| 2026-05-04 18:43 | 52.55616 | -1.32597 | 13432 ft | 317 kts | 161° |
| 2026-05-04 18:43 | 52.53528 | -1.31396 | 14111 ft | 315 kts | 161° |
| 2026-05-04 18:43 | 52.51471 | -1.30208 | 14782 ft | 314 kts | 161° |
| 2026-05-04 18:43 | 52.49372 | -1.28997 | 15053 ft | 322 kts | 161° |
| 2026-05-04 18:44 | 52.47262 | -1.27781 | 15058 ft | 323 kts | 161° |
| 2026-05-04 18:44 | 52.46540 | -1.27365 | 15057 ft | 322 kts | 161° |
| 2026-05-04 18:44 | 52.43036 | -1.25347 | 15050 ft | 317 kts | 161° |
| 2026-05-04 18:44 | 52.40988 | -1.24168 | 15050 ft | 315 kts | 161° |
| 2026-05-04 18:45 | 52.38916 | -1.22977 | 15050 ft | 314 kts | 161° |
| 2026-05-04 18:45 | 52.36855 | -1.21793 | 15049 ft | 313 kts | 161° |
| 2026-05-04 18:45 | 52.34795 | -1.20610 | 15049 ft | 313 kts | 161° |
| 2026-05-04 18:45 | 52.32758 | -1.19442 | 15049 ft | 312 kts | 161° |
| 2026-05-04 18:46 | 52.30698 | -1.18271 | 15048 ft | 312 kts | 162° |
| 2026-05-04 18:46 | 52.28657 | -1.17143 | 15048 ft | 312 kts | 162° |
| 2026-05-04 18:46 | 52.26608 | -1.16027 | 15048 ft | 312 kts | 162° |
| 2026-05-04 18:46 | 52.24527 | -1.14900 | 15047 ft | 312 kts | 162° |
| 2026-05-04 18:47 | 52.22478 | -1.13796 | 15047 ft | 312 kts | 163° |
| 2026-05-04 18:47 | 52.20411 | -1.12813 | 15047 ft | 311 kts | 166° |
| 2026-05-04 18:47 | 52.18311 | -1.11951 | 15047 ft | 311 kts | 167° |
| 2026-05-04 18:47 | 52.16197 | -1.11157 | 15046 ft | 311 kts | 168° |
| 2026-05-04 18:48 | 52.14069 | -1.10388 | 15045 ft | 311 kts | 168° |
| 2026-05-04 18:48 | 52.11972 | -1.09643 | 15045 ft | 311 kts | 168° |
| 2026-05-04 18:48 | 52.09844 | -1.08893 | 15044 ft | 311 kts | 168° |
| 2026-05-04 18:48 | 52.07726 | -1.08148 | 15043 ft | 311 kts | 168° |
| 2026-05-04 18:49 | 52.05636 | -1.07416 | 15038 ft | 311 kts | 169° |
| 2026-05-04 18:49 | 52.03526 | -1.06626 | 15036 ft | 311 kts | 164° |
| 2026-05-04 18:49 | 52.01614 | -1.04956 | 15036 ft | 313 kts | 142° |
| 2026-05-04 18:49 | 52.00226 | -1.02218 | 15043 ft | 316 kts | 120° |
| 2026-05-04 18:50 | 51.99524 | -0.98882 | 15052 ft | 319 kts | 103° |
| 2026-05-04 18:50 | 51.99237 | -0.95288 | 15030 ft | 320 kts | 95° |
| 2026-05-04 18:50 | 51.99142 | -0.91653 | 14734 ft | 322 kts | 92° |
| 2026-05-04 18:50 | 51.99130 | -0.88067 | 14321 ft | 319 kts | 91° |
| 2026-05-04 18:51 | 51.99150 | -0.84465 | 13892 ft | 314 kts | 90° |
| 2026-05-04 18:51 | 51.99182 | -0.80965 | 13468 ft | 310 kts | 90° |
| 2026-05-04 18:51 | 51.99217 | -0.77476 | 13041 ft | 307 kts | 90° |
| 2026-05-04 18:51 | 51.99255 | -0.74022 | 12615 ft | 304 kts | 90° |
| 2026-05-04 18:52 | 51.99289 | -0.70656 | 12195 ft | 302 kts | 90° |
| 2026-05-04 18:52 | 51.99321 | -0.67261 | 11768 ft | 299 kts | 90° |
| 2026-05-04 18:52 | 51.99351 | -0.63880 | 11340 ft | 297 kts | 90° |
| 2026-05-04 18:52 | 51.99380 | -0.60528 | 10913 ft | 295 kts | 89° |
| 2026-05-04 18:53 | 51.99420 | -0.57209 | 10487 ft | 293 kts | 89° |
| 2026-05-04 18:53 | 51.99461 | -0.53941 | 10066 ft | 292 kts | 89° |
| 2026-05-04 18:53 | 51.99501 | -0.50644 | 9639 ft | 290 kts | 89° |
| 2026-05-04 18:53 | 51.99534 | -0.47356 | 9211 ft | 289 kts | 89° |
| 2026-05-04 18:54 | 51.99548 | -0.44129 | 8789 ft | 288 kts | 89° |
| 2026-05-04 18:54 | 51.99518 | -0.40881 | 8358 ft | 286 kts | 94° |
| 2026-05-04 18:54 | 51.98968 | -0.37849 | 7974 ft | 283 kts | 117° |
| 2026-05-04 18:54 | 51.97825 | -0.35304 | 7695 ft | 273 kts | 130° |
| 2026-05-04 18:55 | 51.96965 | -0.33834 | 7498 ft | 267 kts | 134° |
| 2026-05-04 18:55 | 51.93889 | -0.29242 | 6793 ft | 251 kts | 137° |
| 2026-05-04 18:55 | 51.92585 | -0.27379 | 6494 ft | 248 kts | 137° |
| 2026-05-04 18:56 | 51.91728 | -0.26164 | 6292 ft | 246 kts | 138° |
| 2026-05-04 18:56 | 51.90447 | -0.24358 | 6044 ft | 243 kts | 138° |
| 2026-05-04 18:56 | 51.89165 | -0.22560 | 5789 ft | 242 kts | 138° |
| 2026-05-04 18:56 | 51.87907 | -0.20798 | 5541 ft | 241 kts | 138° |
| 2026-05-04 18:57 | 51.86636 | -0.19020 | 5289 ft | 240 kts | 138° |
| 2026-05-04 18:57 | 51.85371 | -0.17255 | 5038 ft | 239 kts | 138° |
| 2026-05-04 18:57 | 51.84127 | -0.15526 | 4790 ft | 238 kts | 138° |
| 2026-05-04 18:57 | 51.82861 | -0.13774 | 4538 ft | 237 kts | 138° |
| 2026-05-04 18:58 | 51.81607 | -0.12038 | 4288 ft | 237 kts | 138° |
| 2026-05-04 18:58 | 51.80354 | -0.10307 | 4039 ft | 236 kts | 138° |
| 2026-05-04 18:58 | 51.79121 | -0.08605 | 3793 ft | 235 kts | 138° |
| 2026-05-04 18:58 | 51.77870 | -0.06884 | 3534 ft | 234 kts | 138° |
| 2026-05-04 18:59 | 51.76643 | -0.05205 | 3287 ft | 233 kts | 138° |
| 2026-05-04 18:59 | 51.75410 | -0.03522 | 3037 ft | 228 kts | 138° |
| 2026-05-04 18:59 | 51.74409 | -0.01618 | 2801 ft | 218 kts | 115° |
| 2026-05-04 18:59 | 51.74158 | 0.00656 | 2697 ft | 197 kts | 83° |
| 2026-05-04 19:00 | 51.74644 | 0.02590 | 2625 ft | 186 kts | 56° |
| 2026-05-04 19:00 | 51.75484 | 0.04161 | 2543 ft | 184 kts | 44° |
| 2026-05-04 19:00 | 51.76417 | 0.05549 | 2443 ft | 181 kts | 40° |
| 2026-05-04 19:00 | 51.77371 | 0.06893 | 2347 ft | 180 kts | 40° |
| 2026-05-04 19:01 | 51.77822 | 0.07532 | 2296 ft | 179 kts | 40° |
| 2026-05-04 19:01 | 51.78145 | 0.07993 | 2260 ft | 179 kts | 40° |
| 2026-05-04 19:01 | 51.79056 | 0.09319 | 2161 ft | 177 kts | 41° |
| 2026-05-04 19:01 | 51.79965 | 0.10670 | 2057 ft | 177 kts | 41° |
| 2026-05-04 19:02 | 51.80861 | 0.12013 | 1964 ft | 168 kts | 42° |
| 2026-05-04 19:02 | 51.81623 | 0.13162 | 1868 ft | 140 kts | 42° |
| 2026-05-04 19:02 | 51.82330 | 0.14224 | 1717 ft | 137 kts | 41° |
| 2026-05-04 19:02 | 51.83022 | 0.15264 | 1563 ft | 137 kts | 41° |
| 2026-05-04 19:03 | 51.83724 | 0.16316 | 1413 ft | 137 kts | 41° |
| 2026-05-04 19:03 | 51.84424 | 0.17367 | 1260 ft | 137 kts | 41° |
| 2026-05-04 19:03 | 51.85118 | 0.18407 | 1090 ft | 137 kts | 41° |
| 2026-05-04 19:03 | 51.85817 | 0.19457 | 908 ft | 137 kts | 42° |
| 2026-05-04 19:04 | 51.86518 | 0.20510 | 709 ft | 137 kts | 43° |
| 2026-05-04 19:04 | 51.87218 | 0.21563 | 519 ft | 136 kts | 43° |
| 2026-05-04 19:04 | 51.87890 | 0.22575 | 362 ft | 128 kts | 43° |
| 2026-05-04 19:04 | 51.88440 | 0.23405 | 357 ft | 77 kts | 43° |
| 2026-05-04 19:05 | 51.88722 | 0.23829 | 357 ft | 43 kts | 43° |
| 2026-05-04 19:05 | 51.88842 | 0.24112 | 357 ft | 23 kts | 72° |
| 2026-05-04 19:05 | 51.88881 | 0.24313 | 357 ft | 15 kts | 72° |
| 2026-05-04 19:05 | 51.88902 | 0.24452 | 357 ft | 11 kts | 98° |
| 2026-05-04 19:06 | 51.88899 | 0.24572 | 357 ft | 13 kts | 56° |
| 2026-05-04 19:06 | 51.88971 | 0.24688 | 357 ft | 15 kts | 43° |
| 2026-05-04 19:06 | 51.89051 | 0.24810 | 357 ft | 16 kts | 43° |
| 2026-05-04 19:06 | 51.89137 | 0.24938 | 357 ft | 17 kts | 43° |
| 2026-05-04 19:07 | 51.89215 | 0.25085 | 357 ft | 17 kts | 62° |
| 2026-05-04 19:07 | 51.89183 | 0.25231 | 357 ft | 15 kts | 133° |
| 2026-05-04 19:07 | 51.89108 | 0.25360 | 357 ft | 16 kts | 133° |
| 2026-05-04 19:07 | 51.89028 | 0.25499 | 357 ft | 18 kts | 133° |
| 2026-05-04 19:08 | 51.88958 | 0.25621 | 357 ft | 11 kts | 133° |
| 2026-05-04 19:08 | 51.88957 | 0.25694 | 357 ft | 4 kts | 45° |
| 2026-05-04 19:08 | 51.88981 | 0.25730 | 357 ft | 4 kts | 43° |
| 2026-05-04 19:08 | 51.88983 | 0.25734 | 357 ft | 0 kts | 43° |